^^
Datos históricos de la estación: Murcia-Puente Tocinos
Diario Informe para Marzo 11, 2019 Unidades:  Métrico    Inglés   Ambas
Diario Semanal Mensual Anual Configurable
  Máximo: Mínimo: Media:
Temperatura: 19.9 °C 10.5 °C 15.4 °C
Punto de rocio: 11.0 °C 5.7 °C 8.4 °C
Humedad: 79% 48% 64%
Velocidad viento: 25.7km/h 0.0km/h 8.9km/h
Racha viento: 46.7km/h - -
Viento- - ESE
Presión: 1029.6 hPa 1023.2 hPa -
Precipitación: 0.0 mm    
Historical Graphs
 
 
Tabla de datos para Marzo 11, 2019
Hora Temperatura Punto de rocio Presión Viento Velocidad viento Racha viento Humedad Intensidad lluvia(por hora) Nubes
00:00 15.1 °C 10.1 °C 1025.1 hPa Calm   4.8 km/h 72% 0.0 mm CLR
00:05 15.1 °C 10.1 °C 1025.0 hPa Calm   3.2 km/h 72% 0.0 mm CLR
00:10 14.9 °C 10.1 °C 1025.0 hPa Calm   1.6 km/h 73% 0.0 mm CLR
00:15 14.9 °C 10.1 °C 1025.0 hPa Calm     73% 0.0 mm CLR
00:20 14.8 °C 10.0 °C 1024.9 hPa Calm     73% 0.0 mm CLR
00:25 14.8 °C 10.0 °C 1024.9 hPa Calm     73% 0.0 mm CLR
00:30 14.8 °C 10.0 °C 1024.9 hPa Calm     73% 0.0 mm CLR
00:35 14.7 °C 10.1 °C 1024.9 hPa Calm     74% 0.0 mm CLR
00:40 14.6 °C 10.0 °C 1024.9 hPa Calm   3.2 km/h 74% 0.0 mm CLR
00:45 14.5 °C 10.1 °C 1024.9 hPa Calm   3.2 km/h 75% 0.0 mm CLR
00:50 14.4 °C 10.2 °C 1024.9 hPa Calm   4.8 km/h 76% 0.0 mm CLR
00:55 14.3 °C 10.1 °C 1024.9 hPa Calm   4.8 km/h 76% 0.0 mm CLR
01:00 14.2 °C 10.2 °C 1024.9 hPa NW 1.6 km/h 4.8 km/h 77% 0.0 mm CLR
01:05 14.2 °C 10.2 °C 1024.8 hPa NW 1.6 km/h 6.4 km/h 77% 0.0 mm CLR
01:10 14.1 °C 10.3 °C 1024.8 hPa NW 3.2 km/h 4.8 km/h 78% 0.0 mm CLR
01:15 14.1 °C 10.5 °C 1024.8 hPa NW 2.9 km/h   79% 0.0 mm CLR
01:20 14.1 °C 10.3 °C 1024.6 hPa Calm     78% 0.0 mm CLR
01:25 13.9 °C 9.8 °C 1024.6 hPa Calm   4.8 km/h 76% 0.0 mm CLR
01:30 13.9 °C 9.7 °C 1024.6 hPa NW 2.3 km/h 3.7 km/h 76% 0.0 mm CLR
01:35 13.9 °C 9.7 °C 1024.4 hPa NW 1.6 km/h 3.2 km/h 76% 0.0 mm CLR
01:40 13.9 °C 9.7 °C 1024.4 hPa Calm     76% 0.0 mm CLR
01:45 13.9 °C 9.7 °C 1024.4 hPa Calm     76% 0.0 mm CLR
01:50 13.9 °C 9.7 °C 1024.4 hPa Calm     76% 0.0 mm CLR
01:55 13.8 °C 9.7 °C 1024.4 hPa Calm     76% 0.0 mm CLR
02:00 13.7 °C 9.3 °C 1024.4 hPa Calm     75% 0.0 mm CLR
02:05 13.7 °C 9.3 °C 1024.3 hPa Calm     75% 0.0 mm CLR
02:10 13.6 °C 8.8 °C 1024.3 hPa Calm     73% 0.0 mm CLR
02:15 13.6 °C 8.4 °C 1024.3 hPa Calm     71% 0.0 mm CLR
02:20 13.6 °C 7.8 °C 1024.1 hPa South 2.3 km/h 5.6 km/h 68% 0.0 mm CLR
02:25 13.6 °C 7.8 °C 1024.1 hPa SSW 1.6 km/h 6.4 km/h 68% 0.0 mm CLR
02:30 13.6 °C 7.6 °C 1024.1 hPa South 3.2 km/h 8.0 km/h 67% 0.0 mm CLR
02:35 13.6 °C 8.0 °C 1024.0 hPa South 3.9 km/h   69% 0.0 mm CLR
02:40 13.6 °C 7.8 °C 1024.0 hPa Calm   5.6 km/h 68% 0.0 mm CLR
02:45 13.5 °C 7.7 °C 1024.0 hPa Calm   6.4 km/h 68% 0.0 mm CLR
02:50 13.6 °C 7.8 °C 1024.0 hPa South 3.2 km/h 4.8 km/h 68% 0.0 mm CLR
02:55 13.5 °C 7.5 °C 1024.0 hPa South 3.2 km/h 8.0 km/h 67% 0.0 mm CLR
03:00 13.4 °C 7.4 °C 1024.0 hPa South 3.2 km/h 11.3 km/h 67% 0.0 mm CLR
03:05 13.2 °C 7.2 °C 1023.8 hPa SSE 3.2 km/h 11.3 km/h 67% 0.0 mm CLR
03:10 13.1 °C 7.1 °C 1023.8 hPa SSE 3.2 km/h 6.4 km/h 67% 0.0 mm CLR
03:15 12.9 °C 7.1 °C 1023.8 hPa SSE 3.2 km/h 8.0 km/h 68% 0.0 mm CLR
03:20 12.9 °C 7.1 °C 1023.8 hPa South 3.2 km/h 4.8 km/h 68% 0.0 mm CLR
03:25 12.8 °C 7.1 °C 1023.8 hPa South 3.2 km/h 6.4 km/h 68% 0.0 mm CLR
03:30 12.9 °C 7.1 °C 1023.8 hPa South 3.2 km/h 4.8 km/h 68% 0.0 mm CLR
03:35 12.9 °C 7.1 °C 1023.7 hPa South 3.2 km/h 8.0 km/h 68% 0.0 mm CLR
03:40 12.9 °C 7.1 °C 1023.7 hPa South 3.2 km/h 9.7 km/h 68% 0.0 mm CLR
03:45 12.8 °C 6.8 °C 1023.7 hPa South 3.2 km/h 9.7 km/h 67% 0.0 mm CLR
03:50 12.8 °C 7.1 °C 1023.6 hPa SSW 4.7 km/h 3.7 km/h 68% 0.0 mm CLR
03:55 12.8 °C 7.1 °C 1023.6 hPa SSW 3.2 km/h 8.0 km/h 68% 0.0 mm CLR
04:00 12.7 °C 6.9 °C 1023.6 hPa SSW 3.2 km/h 6.4 km/h 68% 0.0 mm CLR
04:05 12.7 °C 6.7 °C 1023.5 hPa SSW 3.2 km/h 6.4 km/h 67% 0.0 mm CLR
04:10 12.7 °C 6.9 °C 1023.5 hPa SSW 3.2 km/h 4.8 km/h 68% 0.0 mm CLR
04:15 12.6 °C 6.8 °C 1023.5 hPa SSW 3.2 km/h 4.8 km/h 68% 0.0 mm CLR
04:20 12.5 °C 6.8 °C 1023.2 hPa SSW 3.2 km/h 8.0 km/h 68% 0.0 mm CLR
04:25 12.3 °C 6.8 °C 1023.2 hPa SSW 3.2 km/h 4.8 km/h 69% 0.0 mm CLR
04:30 12.3 °C 7.0 °C 1023.2 hPa SSW 3.2 km/h 3.7 km/h 70% 0.0 mm CLR
04:35 12.2 °C 6.9 °C 1023.3 hPa SSW 3.2 km/h 4.8 km/h 70% 0.0 mm CLR
04:40 12.2 °C 6.9 °C 1023.3 hPa SSW 2.3 km/h 3.7 km/h 70% 0.0 mm CLR
04:45 12.2 °C 6.9 °C 1023.3 hPa SSW 1.6 km/h 3.2 km/h 70% 0.0 mm CLR
04:50 12.1 °C 6.8 °C 1023.4 hPa SSW 2.3 km/h 7.4 km/h 70% 0.0 mm CLR
04:55 12.1 °C 6.6 °C 1023.4 hPa SSW 1.6 km/h 8.0 km/h 69% 0.0 mm CLR
05:00 12.2 °C 6.7 °C 1023.4 hPa South 3.2 km/h 8.0 km/h 69% 0.0 mm CLR
05:05 12.2 °C 6.7 °C 1023.5 hPa SSW 4.7 km/h 5.6 km/h 69% 0.0 mm CLR
05:10 12.2 °C 6.7 °C 1023.5 hPa SSW 4.8 km/h 9.7 km/h 69% 0.0 mm CLR
05:15 12.1 °C 6.6 °C 1023.5 hPa South 5.0 km/h 3.7 km/h 69% 0.0 mm CLR
05:20 12.1 °C 6.6 °C 1023.6 hPa South 3.2 km/h 3.2 km/h 69% 0.0 mm CLR
05:25 12.1 °C 6.8 °C 1023.6 hPa South 3.9 km/h   70% 0.0 mm CLR
05:30 12.0 °C 6.7 °C 1023.6 hPa Calm   3.7 km/h 70% 0.0 mm CLR
05:35 11.9 °C 6.6 °C 1023.5 hPa Calm   8.0 km/h 70% 0.0 mm CLR
05:40 11.8 °C 6.5 °C 1023.5 hPa South 4.7 km/h 9.3 km/h 70% 0.0 mm CLR
05:45 11.7 °C 6.4 °C 1023.5 hPa South 3.2 km/h 9.7 km/h 70% 0.0 mm CLR
05:50 11.7 °C 6.2 °C 1023.8 hPa SSE 6.4 km/h 7.4 km/h 69% 0.0 mm CLR
05:55 11.7 °C 6.4 °C 1023.8 hPa SSE 8.0 km/h 8.0 km/h 70% 0.0 mm CLR
06:00 11.6 °C 6.3 °C 1023.8 hPa South 3.2 km/h 8.0 km/h 70% 0.0 mm CLR
06:05 11.6 °C 6.3 °C 1023.9 hPa South 3.2 km/h 9.7 km/h 70% 0.0 mm CLR
06:10 11.7 °C 6.2 °C 1023.9 hPa South 4.8 km/h 9.7 km/h 69% 0.0 mm CLR
06:15 11.7 °C 6.2 °C 1023.9 hPa SSW 4.8 km/h 12.9 km/h 69% 0.0 mm CLR
06:20 11.8 °C 6.1 °C 1023.9 hPa SSW 8.0 km/h 12.9 km/h 68% 0.0 mm CLR
06:25 11.8 °C 6.1 °C 1023.9 hPa SSW 8.0 km/h 12.9 km/h 68% 0.0 mm CLR
06:30 11.9 °C 5.9 °C 1023.9 hPa SSW 8.4 km/h 11.1 km/h 67% 0.0 mm CLR
06:35 11.9 °C 5.9 °C 1024.0 hPa SSW 8.0 km/h 11.3 km/h 67% 0.0 mm CLR
06:40 12.0 °C 6.1 °C 1024.0 hPa SSW 8.0 km/h 8.0 km/h 67% 0.0 mm CLR
06:45 11.6 °C 5.7 °C 1024.0 hPa ESE 6.9 km/h 7.4 km/h 67% 0.0 mm CLR
06:50 11.1 °C 5.8 °C 1024.2 hPa SE 4.8 km/h 9.7 km/h 70% 0.0 mm CLR
06:55 10.7 °C 5.8 °C 1024.2 hPa SSE 5.8 km/h 10.0 km/h 72% 0.0 mm CLR
07:00 10.6 °C 5.9 °C 1024.2 hPa SSE 8.0 km/h 11.3 km/h 73% 0.0 mm CLR
07:05 10.5 °C 5.9 °C 1024.1 hPa South 8.0 km/h 9.7 km/h 73% 0.0 mm CLR
07:10 10.7 °C 5.8 °C 1024.1 hPa South 8.0 km/h 12.9 km/h 72% 0.0 mm CLR
07:15 10.7 °C 5.8 °C 1024.1 hPa SSE 8.0 km/h 12.9 km/h 72% 0.0 mm CLR
07:20 10.7 °C 5.8 °C 1024.2 hPa SSE 8.0 km/h 11.3 km/h 72% 0.0 mm CLR
07:25 10.7 °C 5.8 °C 1024.2 hPa SSE 8.0 km/h 11.3 km/h 72% 0.0 mm CLR
07:30 10.6 °C 5.8 °C 1024.2 hPa South 8.4 km/h 13.0 km/h 72% 0.0 mm CLR
07:35 10.7 °C 5.8 °C 1024.5 hPa South 8.0 km/h 11.3 km/h 72% 0.0 mm CLR
07:40 10.8 °C 5.7 °C 1024.5 hPa SSW 8.0 km/h 11.3 km/h 71% 0.0 mm CLR
07:45 11.2 °C 5.9 °C 1024.5 hPa SSW 8.4 km/h 9.3 km/h 70% 0.0 mm CLR
07:50 11.4 °C 5.9 °C 1024.6 hPa SW 8.0 km/h 12.9 km/h 69% 0.0 mm CLR
07:55 11.7 °C 5.9 °C 1024.6 hPa SW 8.0 km/h 11.3 km/h 68% 0.0 mm CLR
08:00 11.8 °C 5.8 °C 1024.6 hPa WSW 8.0 km/h 11.3 km/h 67% 0.0 mm CLR
08:05 11.9 °C 5.9 °C 1024.9 hPa SW 7.6 km/h 5.6 km/h 67% 0.0 mm CLR
08:10 12.2 °C 6.1 °C 1024.9 hPa SW 3.2 km/h 8.0 km/h 66% 0.0 mm CLR
08:15 12.1 °C 6.1 °C 1024.9 hPa SSE 3.2 km/h 11.3 km/h 67% 0.0 mm CLR
08:20 11.6 °C 6.1 °C 1025.2 hPa ESE 6.4 km/h 9.3 km/h 69% 0.0 mm CLR
08:25 11.4 °C 5.9 °C 1025.2 hPa SSW 6.4 km/h 9.3 km/h 69% 0.0 mm CLR
08:30 11.6 °C 6.1 °C 1025.2 hPa SSE 8.0 km/h 9.7 km/h 69% 0.0 mm CLR
08:35 11.8 °C 6.1 °C 1025.3 hPa WSW 6.4 km/h 9.3 km/h 68% 0.0 mm CLR
08:40 12.2 °C 6.2 °C 1025.3 hPa WSW 6.4 km/h 7.4 km/h 67% 0.0 mm CLR
08:45 12.6 °C 6.4 °C 1025.3 hPa NNE 6.4 km/h 9.3 km/h 66% 0.0 mm CLR
08:50 13.0 °C 6.6 °C 1025.6 hPa NNE 3.2 km/h 14.5 km/h 65% 0.0 mm CLR
08:55 13.1 °C 6.7 °C 1025.6 hPa NE 4.7 km/h 11.1 km/h 65% 0.0 mm CLR
09:00 13.1 °C 7.1 °C 1025.6 hPa NE 8.0 km/h 17.7 km/h 67% 0.0 mm CLR
09:05 13.1 °C 7.3 °C 1026.2 hPa NE 8.4 km/h 13.0 km/h 68% 0.0 mm CLR
09:10 13.0 °C 7.2 °C 1026.2 hPa NNE 9.5 km/h 9.3 km/h 68% 0.0 mm CLR
09:15 13.1 °C 7.3 °C 1026.2 hPa NE 9.7 km/h 12.9 km/h 68% 0.0 mm CLR
09:20 13.2 °C 7.4 °C 1026.5 hPa NNE 6.9 km/h 9.3 km/h 68% 0.0 mm CLR
09:25 13.3 °C 7.1 °C 1026.5 hPa North 6.9 km/h 9.3 km/h 66% 0.0 mm CLR
09:30 13.6 °C 7.3 °C 1026.5 hPa NNE 4.8 km/h 9.7 km/h 66% 0.0 mm CLR
09:35 14.1 °C 7.4 °C 1026.5 hPa NE 4.8 km/h 4.8 km/h 64% 0.0 mm CLR
09:40 14.3 °C 7.3 °C 1026.5 hPa NE 3.2 km/h 4.8 km/h 63% 0.0 mm CLR
09:45 14.6 °C 7.6 °C 1026.5 hPa North 2.9 km/h 5.6 km/h 63% 0.0 mm CLR
09:50 14.9 °C 7.7 °C 1026.7 hPa North 2.3 km/h   62% 0.0 mm CLR
09:55 15.3 °C 7.8 °C 1026.7 hPa North 2.3 km/h 3.7 km/h 61% 0.0 mm CLR
10:00 15.6 °C 7.6 °C 1026.7 hPa North 1.6 km/h 8.0 km/h 59% 0.0 mm CLR
10:05 15.9 °C 7.9 °C 1026.8 hPa North 1.6 km/h 8.0 km/h 59% 0.0 mm CLR
10:10 16.4 °C 8.1 °C 1026.8 hPa NW 3.2 km/h 9.3 km/h 58% 0.0 mm CLR
10:15 16.6 °C 8.3 °C 1026.8 hPa NNW 3.2 km/h 9.7 km/h 58% 0.0 mm CLR
10:20 16.8 °C 8.2 °C 1027.0 hPa NNW 3.2 km/h 9.7 km/h 57% 0.0 mm CLR
10:25 17.2 °C 8.6 °C 1027.0 hPa NNE 4.7 km/h 9.5 km/h 57% 0.0 mm CLR
10:30 17.3 °C 8.7 °C 1027.0 hPa NNE 4.8 km/h 12.9 km/h 57% 0.0 mm CLR
10:35 17.3 °C 8.7 °C 1027.1 hPa NNE 4.8 km/h 11.3 km/h 57% 0.0 mm CLR
10:40 17.5 °C 9.2 °C 1027.1 hPa East 6.9 km/h 11.1 km/h 58% 0.0 mm CLR
10:45 17.7 °C 9.3 °C 1027.1 hPa NNE 8.0 km/h 14.5 km/h 58% 0.0 mm CLR
10:50 17.7 °C 9.6 °C 1027.1 hPa NE 9.7 km/h 16.1 km/h 59% 0.0 mm CLR
10:55 17.9 °C 10.0 °C 1027.1 hPa NE 9.7 km/h 27.4 km/h 60% 0.0 mm CLR
11:00 17.9 °C 10.0 °C 1027.1 hPa NE 14.5 km/h 27.4 km/h 60% 0.0 mm CLR
11:05 18.0 °C 10.1 °C 1027.2 hPa NE 14.0 km/h 24.1 km/h 60% 0.0 mm CLR
11:10 18.1 °C 10.2 °C 1027.2 hPa East 13.7 km/h 25.9 km/h 60% 0.0 mm CLR
11:15 18.3 °C 10.6 °C 1027.2 hPa NE 12.9 km/h 25.7 km/h 61% 0.0 mm CLR
11:20 18.4 °C 10.5 °C 1027.1 hPa ENE 11.9 km/h 20.4 km/h 60% 0.0 mm CLR
11:25 18.2 °C 10.8 °C 1027.1 hPa ENE 11.9 km/h 18.5 km/h 62% 0.0 mm CLR
11:30 18.3 °C 10.9 °C 1027.1 hPa East 13.7 km/h 16.7 km/h 62% 0.0 mm CLR
11:35 18.5 °C 10.8 °C 1027.1 hPa NE 13.7 km/h 22.2 km/h 61% 0.0 mm CLR
11:40 18.6 °C 10.9 °C 1027.1 hPa NNE 13.0 km/h 18.5 km/h 61% 0.0 mm CLR
11:45 18.7 °C 11.0 °C 1027.1 hPa NNE 13.0 km/h 20.4 km/h 61% 0.0 mm CLR
11:50 18.7 °C 10.5 °C 1027.4 hPa NE 14.8 km/h 24.1 km/h 59% 0.0 mm CLR
11:55 18.8 °C 10.3 °C 1027.4 hPa NE 14.5 km/h 33.8 km/h 58% 0.0 mm CLR
12:00 18.9 °C 10.7 °C 1027.4 hPa NE 19.3 km/h 24.1 km/h 59% 0.0 mm CLR
12:05 19.1 °C 10.4 °C 1027.5 hPa NE 19.3 km/h 24.1 km/h 57% 0.0 mm CLR
12:10 19.4 °C 9.0 °C 1027.5 hPa NE 16.1 km/h 35.2 km/h 51% 0.0 mm CLR
12:15 19.4 °C 9.0 °C 1027.5 hPa NNE 16.1 km/h 35.2 km/h 51% 0.0 mm CLR
12:20 19.3 °C 9.2 °C 1027.6 hPa NE 25.7 km/h 37.0 km/h 52% 0.0 mm CLR
12:25 19.4 °C 8.7 °C 1027.6 hPa NE 25.7 km/h 37.0 km/h 50% 0.0 mm CLR
12:30 19.4 °C 9.0 °C 1027.6 hPa NE 24.1 km/h 33.8 km/h 51% 0.0 mm CLR
12:35 19.6 °C 9.2 °C 1027.2 hPa ENE 23.7 km/h 25.9 km/h 51% 0.0 mm CLR
12:40 19.6 °C 9.2 °C 1027.2 hPa NE 20.9 km/h 35.4 km/h 51% 0.0 mm CLR
12:45 19.6 °C 9.4 °C 1027.2 hPa NE 20.9 km/h 32.2 km/h 52% 0.0 mm CLR
12:50 19.7 °C 9.6 °C 1027.3 hPa NE 19.8 km/h 33.3 km/h 52% 0.0 mm CLR
12:55 19.8 °C 9.4 °C 1027.3 hPa NE 20.9 km/h 33.8 km/h 51% 0.0 mm CLR
13:00 19.9 °C 9.2 °C 1027.3 hPa NE 19.3 km/h 35.4 km/h 50% 0.0 mm CLR
13:05 19.7 °C 9.0 °C 1027.3 hPa ESE 18.3 km/h 38.9 km/h 50% 0.0 mm CLR
13:10 19.7 °C 9.3 °C 1027.3 hPa NE 20.1 km/h 29.1 km/h 51% 0.0 mm CLR
13:15 19.6 °C 8.6 °C 1027.3 hPa ENE 20.1 km/h 27.8 km/h 49% 0.0 mm CLR
13:20 19.7 °C 8.7 °C 1027.1 hPa ENE 19.3 km/h 30.6 km/h 49% 0.0 mm CLR
13:25 19.6 °C 8.8 °C 1027.1 hPa NE 19.3 km/h 46.7 km/h 50% 0.0 mm CLR
13:30 19.7 °C 8.4 °C 1027.1 hPa NE 20.9 km/h 33.3 km/h 48% 0.0 mm CLR
13:35 19.7 °C 8.7 °C 1026.9 hPa NE 20.9 km/h 33.8 km/h 49% 0.0 mm CLR
13:40 19.8 °C 8.8 °C 1026.9 hPa ENE 16.4 km/h 35.2 km/h 49% 0.0 mm CLR
13:45 19.8 °C 9.1 °C 1026.9 hPa WNW 16.4 km/h 29.6 km/h 50% 0.0 mm CLR
13:50 19.8 °C 9.1 °C 1026.9 hPa NE 16.1 km/h 33.8 km/h 50% 0.0 mm CLR
13:55 19.6 °C 9.4 °C 1026.9 hPa North 16.1 km/h 24.1 km/h 52% 0.0 mm CLR
14:00 19.5 °C 9.4 °C 1026.9 hPa NE 19.3 km/h 32.2 km/h 52% 0.0 mm CLR
14:05 19.6 °C 9.5 °C 1026.7 hPa NE 19.3 km/h 32.2 km/h 52% 0.0 mm CLR
14:10 19.4 °C 9.6 °C 1026.7 hPa NE 20.9 km/h 37.0 km/h 53% 0.0 mm CLR
14:15 19.3 °C 9.5 °C 1026.7 hPa NE 19.8 km/h 37.0 km/h 53% 0.0 mm CLR
14:20 19.4 °C 9.6 °C 1026.4 hPa NE 21.7 km/h 29.6 km/h 53% 0.0 mm CLR
14:25 19.7 °C 9.6 °C 1026.4 hPa NNE 21.7 km/h 33.3 km/h 52% 0.0 mm CLR
14:30 19.4 °C 9.6 °C 1026.4 hPa NE 20.9 km/h 45.1 km/h 53% 0.0 mm CLR
14:35 19.6 °C 9.7 °C 1026.3 hPa NE 20.9 km/h 33.8 km/h 53% 0.0 mm CLR
14:40 19.7 °C 9.8 °C 1026.3 hPa NE 18.0 km/h 33.3 km/h 53% 0.0 mm CLR
14:45 19.5 °C 9.9 °C 1026.3 hPa NE 19.3 km/h 33.8 km/h 54% 0.0 mm CLR
14:50 19.5 °C 9.6 °C 1026.1 hPa NE 19.3 km/h 29.0 km/h 53% 0.0 mm CLR
14:55 19.6 °C 9.4 °C 1026.1 hPa ENE 19.3 km/h 35.4 km/h 52% 0.0 mm CLR
15:00 19.7 °C 8.9 °C 1026.1 hPa ENE 19.3 km/h 27.4 km/h 50% 0.0 mm CLR
15:05 19.7 °C 9.0 °C 1026.1 hPa NNE 18.0 km/h 22.2 km/h 50% 0.0 mm CLR
15:10 19.9 °C 8.6 °C 1026.1 hPa NNE 15.6 km/h 33.3 km/h 48% 0.0 mm CLR
15:15 19.8 °C 8.4 °C 1026.1 hPa NE 14.5 km/h 37.0 km/h 48% 0.0 mm CLR
15:20 19.4 °C 8.7 °C 1026.1 hPa NE 20.1 km/h 37.0 km/h 50% 0.0 mm CLR
15:25 19.4 °C 8.4 °C 1026.1 hPa ENE 20.1 km/h 38.9 km/h 49% 0.0 mm CLR
15:30 19.4 °C 8.7 °C 1026.1 hPa ENE 24.5 km/h 33.3 km/h 50% 0.0 mm CLR
15:35 19.4 °C 8.4 °C 1026.1 hPa NE 24.1 km/h 35.4 km/h 49% 0.0 mm CLR
15:40 19.6 °C 8.9 °C 1026.1 hPa NE 22.5 km/h 33.8 km/h 50% 0.0 mm CLR
15:45 19.4 °C 9.0 °C 1026.1 hPa NE 22.5 km/h 33.8 km/h 51% 0.0 mm CLR
15:50 19.3 °C 8.9 °C 1025.9 hPa NE 20.9 km/h 37.0 km/h 51% 0.0 mm CLR
15:55 19.3 °C 9.2 °C 1025.9 hPa NE 20.9 km/h 27.4 km/h 52% 0.0 mm CLR
16:00 19.4 °C 9.6 °C 1025.9 hPa NE 16.1 km/h 32.2 km/h 53% 0.0 mm CLR
16:05 19.4 °C 9.6 °C 1025.9 hPa NNE 17.2 km/h 24.1 km/h 53% 0.0 mm CLR
16:10 19.2 °C 9.7 °C 1025.9 hPa NE 19.3 km/h 37.0 km/h 54% 0.0 mm CLR
16:15 19.1 °C 9.8 °C 1025.9 hPa NNE 19.0 km/h 29.8 km/h 55% 0.0 mm CLR
16:20 19.2 °C 9.6 °C 1026.1 hPa NE 20.9 km/h 29.0 km/h 54% 0.0 mm CLR
16:25 19.3 °C 10.1 °C 1026.1 hPa NE 20.9 km/h 29.0 km/h 55% 0.0 mm CLR
16:30 19.2 °C 9.9 °C 1026.1 hPa NE 16.1 km/h 29.0 km/h 55% 0.0 mm CLR
16:35 19.2 °C 9.9 °C 1026.2 hPa NE 16.1 km/h 25.7 km/h 55% 0.0 mm CLR
16:40 19.2 °C 10.0 °C 1026.2 hPa NE 14.5 km/h 25.7 km/h 55% 0.0 mm CLR
16:45 19.2 °C 9.9 °C 1026.2 hPa NE 14.5 km/h 29.0 km/h 55% 0.0 mm CLR
16:50 18.9 °C 10.2 °C 1026.5 hPa NE 18.0 km/h 29.6 km/h 57% 0.0 mm CLR
16:55 18.7 °C 10.3 °C 1026.5 hPa ENE 18.0 km/h 27.8 km/h 58% 0.0 mm CLR
17:00 18.6 °C 10.4 °C 1026.5 hPa NE 19.3 km/h 33.8 km/h 59% 0.0 mm CLR
17:05 18.3 °C 10.4 °C 1026.6 hPa NE 19.3 km/h 35.4 km/h 60% 0.0 mm CLR
17:10 18.2 °C 10.6 °C 1026.6 hPa NE 20.9 km/h 27.4 km/h 61% 0.0 mm CLR
17:15 18.1 °C 10.7 °C 1026.6 hPa NE 20.9 km/h 30.6 km/h 62% 0.0 mm CLR
17:20 18.2 °C 10.8 °C 1026.6 hPa NE 17.2 km/h 18.5 km/h 62% 0.0 mm CLR
17:25 18.3 °C 10.9 °C 1026.6 hPa ENE 16.1 km/h 19.3 km/h 62% 0.0 mm CLR
17:30 18.3 °C 10.9 °C 1026.6 hPa East 10.3 km/h 24.1 km/h 62% 0.0 mm CLR
17:35 18.2 °C 10.8 °C 1026.8 hPa NNE 10.3 km/h 20.9 km/h 62% 0.0 mm CLR
17:40 18.1 °C 10.4 °C 1026.8 hPa ENE 12.9 km/h 27.4 km/h 61% 0.0 mm CLR
17:45 18.0 °C 9.8 °C 1026.8 hPa NE 12.9 km/h 27.4 km/h 59% 0.0 mm CLR
17:50 17.8 °C 9.7 °C 1026.8 hPa East 12.2 km/h 18.5 km/h 59% 0.0 mm CLR
17:55 17.8 °C 9.4 °C 1026.8 hPa NNE 12.2 km/h 16.7 km/h 58% 0.0 mm CLR
18:00 17.8 °C 9.4 °C 1026.8 hPa NE 12.9 km/h 24.1 km/h 58% 0.0 mm CLR
18:05 17.7 °C 9.1 °C 1026.8 hPa NE 12.9 km/h 27.4 km/h 57% 0.0 mm CLR
18:10 17.7 °C 8.8 °C 1026.8 hPa NE 12.2 km/h 18.5 km/h 56% 0.0 mm CLR
18:15 17.7 °C 8.8 °C 1026.8 hPa NE 12.2 km/h 18.5 km/h 56% 0.0 mm CLR
18:20 17.7 °C 8.8 °C 1027.0 hPa NNE 11.9 km/h 9.3 km/h 56% 0.0 mm CLR
18:25 17.7 °C 8.8 °C 1027.0 hPa NE 11.3 km/h 19.3 km/h 56% 0.0 mm CLR
18:30 17.6 °C 8.7 °C 1027.0 hPa NE 9.5 km/h 14.8 km/h 56% 0.0 mm CLR
18:35 17.5 °C 8.3 °C 1027.4 hPa NE 9.5 km/h 18.5 km/h 55% 0.0 mm CLR
18:40 17.4 °C 8.3 °C 1027.4 hPa NE 12.9 km/h 20.9 km/h 55% 0.0 mm CLR
18:45 17.3 °C 8.2 °C 1027.4 hPa NE 12.9 km/h 19.3 km/h 55% 0.0 mm CLR
18:50 17.2 °C 7.8 °C 1027.5 hPa ENE 11.1 km/h 20.4 km/h 54% 0.0 mm CLR
18:55 17.0 °C 7.6 °C 1027.5 hPa NE 11.1 km/h 20.4 km/h 54% 0.0 mm CLR
19:00 16.9 °C 7.8 °C 1027.5 hPa NE 12.9 km/h 20.9 km/h 55% 0.0 mm CLR
19:05 16.7 °C 7.9 °C 1027.7 hPa NE 12.9 km/h 20.9 km/h 56% 0.0 mm CLR
19:10 16.6 °C 8.3 °C 1027.7 hPa NNE 13.7 km/h 14.8 km/h 58% 0.0 mm CLR
19:15 16.4 °C 8.4 °C 1027.7 hPa NE 12.9 km/h 16.1 km/h 59% 0.0 mm CLR
19:20 16.2 °C 8.4 °C 1027.9 hPa East 11.1 km/h 20.4 km/h 60% 0.0 mm CLR
19:25 16.1 °C 8.6 °C 1027.9 hPa NE 11.1 km/h 14.8 km/h 61% 0.0 mm CLR
19:30 16.0 °C 8.5 °C 1027.9 hPa NE 11.1 km/h 14.8 km/h 61% 0.0 mm CLR
19:35 15.9 °C 8.4 °C 1027.9 hPa NNE 11.1 km/h 14.8 km/h 61% 0.0 mm CLR
19:40 15.9 °C 8.4 °C 1027.9 hPa NE 10.3 km/h 13.0 km/h 61% 0.0 mm CLR
19:45 15.8 °C 8.3 °C 1027.9 hPa NE 10.3 km/h 14.8 km/h 61% 0.0 mm CLR
19:50 15.7 °C 8.4 °C 1028.1 hPa North 10.3 km/h 16.7 km/h 62% 0.0 mm CLR
19:55 15.6 °C 8.3 °C 1028.1 hPa NE 10.3 km/h 14.8 km/h 62% 0.0 mm CLR
20:00 15.5 °C 8.2 °C 1028.1 hPa NE 9.7 km/h 14.5 km/h 62% 0.0 mm CLR
20:05 15.4 °C 8.4 °C 1028.5 hPa NE 9.7 km/h 19.3 km/h 63% 0.0 mm CLR
20:10 15.2 °C 8.2 °C 1028.5 hPa NE 9.7 km/h 16.1 km/h 63% 0.0 mm CLR
20:15 15.1 °C 8.3 °C 1028.5 hPa NE 9.5 km/h 11.1 km/h 64% 0.0 mm CLR
20:20 15.1 °C 8.3 °C 1028.5 hPa NE 8.0 km/h 12.9 km/h 64% 0.0 mm CLR
20:25 15.0 °C 8.2 °C 1028.5 hPa NE 7.6 km/h 14.8 km/h 64% 0.0 mm CLR
20:30 14.9 °C 8.2 °C 1028.5 hPa NE 9.5 km/h 9.3 km/h 64% 0.0 mm CLR
20:35 14.8 °C 8.3 °C 1028.7 hPa ENE 9.5 km/h 11.1 km/h 65% 0.0 mm CLR
20:40 14.8 °C 8.3 °C 1028.7 hPa NE 7.6 km/h 11.1 km/h 65% 0.0 mm CLR
20:45 14.7 °C 8.4 °C 1028.7 hPa NE 7.6 km/h 13.0 km/h 66% 0.0 mm CLR
20:50 14.6 °C 8.6 °C 1028.8 hPa NE 8.7 km/h 14.8 km/h 67% 0.0 mm CLR
20:55 14.6 °C 8.8 °C 1028.8 hPa ENE 8.7 km/h 11.1 km/h 68% 0.0 mm CLR
21:00 14.5 °C 8.7 °C 1028.8 hPa NE 9.7 km/h 11.3 km/h 68% 0.0 mm CLR
21:05 14.5 °C 8.9 °C 1029.0 hPa NE 9.5 km/h 7.4 km/h 69% 0.0 mm CLR
21:10 14.5 °C 8.9 °C 1029.0 hPa NNE 5.8 km/h 7.4 km/h 69% 0.0 mm CLR
21:15 14.6 °C 9.0 °C 1029.0 hPa ENE 4.8 km/h 9.7 km/h 69% 0.0 mm CLR
21:20 14.6 °C 9.0 °C 1029.2 hPa SE 3.9 km/h 7.4 km/h 69% 0.0 mm CLR
21:25 14.5 °C 8.9 °C 1029.2 hPa SE 3.9 km/h 5.6 km/h 69% 0.0 mm CLR
21:30 14.4 °C 8.8 °C 1029.2 hPa East 3.9 km/h 9.3 km/h 69% 0.0 mm CLR
21:35 14.4 °C 8.8 °C 1029.4 hPa East 3.9 km/h 5.6 km/h 69% 0.0 mm CLR
21:40 14.4 °C 8.8 °C 1029.4 hPa ENE 4.7 km/h 3.7 km/h 69% 0.0 mm CLR
21:45 14.4 °C 8.8 °C 1029.4 hPa East 3.2 km/h 8.0 km/h 69% 0.0 mm CLR
21:50 14.4 °C 8.8 °C 1029.3 hPa ESE 3.2 km/h 5.6 km/h 69% 0.0 mm CLR
21:55 14.4 °C 8.8 °C 1029.3 hPa ESE 3.2 km/h 8.0 km/h 69% 0.0 mm CLR
22:00 14.4 °C 8.8 °C 1029.3 hPa ESE 3.2 km/h 4.8 km/h 69% 0.0 mm CLR
22:05 14.4 °C 8.8 °C 1029.3 hPa ESE 3.2 km/h 8.0 km/h 69% 0.0 mm CLR
22:10 14.4 °C 8.8 °C 1029.3 hPa ESE 3.2 km/h 5.6 km/h 69% 0.0 mm CLR
22:15 14.3 °C 8.9 °C 1029.3 hPa ESE 3.2 km/h 7.4 km/h 70% 0.0 mm CLR
22:20 14.2 °C 8.8 °C 1029.4 hPa ESE 5.0 km/h 8.4 km/h 70% 0.0 mm CLR
22:25 14.1 °C 8.5 °C 1029.4 hPa SE 5.0 km/h 9.3 km/h 69% 0.0 mm CLR
22:30 13.9 °C 8.5 °C 1029.4 hPa ESE 5.8 km/h 7.4 km/h 70% 0.0 mm CLR
22:35 13.8 °C 8.4 °C 1029.5 hPa SE 4.8 km/h 8.0 km/h 70% 0.0 mm CLR
22:40 13.8 °C 8.4 °C 1029.5 hPa ESE 3.2 km/h 7.4 km/h 70% 0.0 mm CLR
22:45 13.6 °C 8.4 °C 1029.5 hPa ESE 3.2 km/h 9.3 km/h 71% 0.0 mm CLR
22:50 13.5 °C 8.3 °C 1029.5 hPa ESE 4.8 km/h 9.7 km/h 71% 0.0 mm CLR
22:55 13.3 °C 8.3 °C 1029.5 hPa East 4.8 km/h 9.7 km/h 72% 0.0 mm CLR
23:00 13.2 °C 8.4 °C 1029.5 hPa East 4.8 km/h 8.0 km/h 73% 0.0 mm CLR
23:05 13.1 °C 8.4 °C 1029.4 hPa ESE 5.8 km/h 3.7 km/h 73% 0.0 mm CLR
23:10 13.1 °C 8.4 °C 1029.4 hPa ESE 3.9 km/h   73% 0.0 mm CLR
23:15 13.1 °C 8.3 °C 1029.4 hPa ESE 3.2 km/h 4.8 km/h 73% 0.0 mm CLR
23:20 12.9 °C 8.4 °C 1029.5 hPa ESE 2.3 km/h 3.7 km/h 74% 0.0 mm CLR
23:25 12.9 °C 8.4 °C 1029.5 hPa ESE 1.6 km/h 4.8 km/h 74% 0.0 mm CLR
23:30 12.8 °C 8.3 °C 1029.5 hPa ESE 2.3 km/h   74% 0.0 mm CLR
23:35 12.8 °C 8.3 °C 1029.6 hPa ESE 2.3 km/h 3.7 km/h 74% 0.0 mm CLR
23:40 12.8 °C 8.3 °C 1029.6 hPa Calm   3.2 km/h 74% 0.0 mm CLR
23:45 12.7 °C 8.2 °C 1029.6 hPa Calm   4.8 km/h 74% 0.0 mm CLR
23:50 12.6 °C 8.1 °C 1029.6 hPa ESE 2.3 km/h   74% 0.0 mm CLR
23:55 12.6 °C 8.1 °C 1029.6 hPa ESE 1.6 km/h 3.2 km/h 74% 0.0 mm CLR
Murcia-Puente Tocinos, España
Compliments of Weather Underground - 2.75 mb

La estación de MeteoMurcia.com, publica sus datos en los siguientes proyectos:

Weather Underground PWS IMURCIAP2 Meteoclimatic www.awekas.at

W3Counter
Web Analytics